createdAt,value
2019-02-06T00:01:12.941Z,28.25
2019-02-06T00:02:17.840Z,29.07
2019-02-06T00:03:22.952Z,32.08
2019-02-06T00:04:27.411Z,30.12
2019-02-06T00:05:31.668Z,30.62
2019-02-06T00:06:36.035Z,29.23
2019-02-06T00:07:40.393Z,30.62
2019-02-06T00:08:44.611Z,32.93
2019-02-06T00:09:49.155Z,31.12
2019-02-06T00:10:54.109Z,32.67
2019-02-06T00:11:58.432Z,28.40
2019-02-06T00:13:02.664Z,30.40
2019-02-06T00:14:07.016Z,30.85
2019-02-06T00:15:11.303Z,30.20
2019-02-06T00:16:15.836Z,29.25
2019-02-06T00:17:20.179Z,29.85
2019-02-06T00:18:24.421Z,28.50
2019-02-06T00:19:28.816Z,29.75
2019-02-06T00:20:33.082Z,29.12
2019-02-06T00:21:37.308Z,29.12
2019-02-06T00:22:41.450Z,28.50
2019-02-06T00:23:45.595Z,30.60
2019-02-06T00:24:50.437Z,29.92
2019-02-06T00:25:54.840Z,28.50
2019-02-06T00:26:59.035Z,29.23
2019-02-06T00:28:03.428Z,30.17
2019-02-06T00:29:07.700Z,29.52
2019-02-06T00:30:12.717Z,30.02
2019-02-06T00:31:17.349Z,28.67
2019-02-06T00:32:21.589Z,30.05
2019-02-06T00:33:25.849Z,28.83
2019-02-06T00:34:30.100Z,31.23
2019-02-06T00:35:34.263Z,29.42
2019-02-06T00:36:38.532Z,29.35
2019-02-06T00:37:42.788Z,29.67
2019-02-06T00:38:46.973Z,29.63
2019-02-06T00:39:52.011Z,30.15
2019-02-06T00:40:56.346Z,31.40
2019-02-06T00:42:01.102Z,31.27
2019-02-06T00:43:05.701Z,29.50
2019-02-06T00:44:10.037Z,30.65
2019-02-06T00:45:14.631Z,32.20
2019-02-06T00:46:19.111Z,31.30
2019-02-06T00:47:23.324Z,30.77
2019-02-06T00:48:27.583Z,28.60
2019-02-06T00:49:31.899Z,31.15
2019-02-06T00:50:36.137Z,31.33
2019-02-06T00:51:40.289Z,29.60
2019-02-06T00:52:44.475Z,31.48
2019-02-06T00:53:48.754Z,31.55
2019-02-06T00:54:53.151Z,29.80
2019-02-06T00:55:57.396Z,31.02
2019-02-06T00:57:01.932Z,30.57
2019-02-06T00:58:06.417Z,29.72
2019-02-06T00:59:10.715Z,30.37
2019-02-06T01:00:20.449Z,31.85
2019-02-06T01:01:24.813Z,30.23
2019-02-06T01:02:29.136Z,30.55
2019-02-06T01:03:33.456Z,30.95
2019-02-06T01:04:37.656Z,31.10
2019-02-06T01:05:41.947Z,33.40
2019-02-06T01:06:46.214Z,30.37
2019-02-06T01:07:50.681Z,31.77
2019-02-06T01:08:55.063Z,31.17
2019-02-06T01:09:59.305Z,29.92
2019-02-06T01:11:03.569Z,32.40
2019-02-06T01:12:07.922Z,31.00
2019-02-06T01:13:12.295Z,31.85
2019-02-06T01:14:16.999Z,32.67
2019-02-06T01:15:21.434Z,32.10
2019-02-06T01:16:25.715Z,31.23
2019-02-06T01:17:30.114Z,30.75
2019-02-06T01:18:34.437Z,32.75
2019-02-06T01:19:38.758Z,32.00
2019-02-06T01:20:42.991Z,29.77
2019-02-06T01:21:47.272Z,30.45
2019-02-06T01:22:51.554Z,29.57
2019-02-06T01:23:55.764Z,31.00
2019-02-06T01:24:59.905Z,28.62
2019-02-06T01:26:04.215Z,28.10
2019-02-06T01:27:08.455Z,30.48
2019-02-06T01:28:12.735Z,28.20
2019-02-06T01:29:17.201Z,29.55
2019-02-06T01:30:24.141Z,28.95
2019-02-06T01:31:29.994Z,31.65
2019-02-06T01:32:34.257Z,28.38
2019-02-06T01:33:38.390Z,28.35
2019-02-06T01:34:42.747Z,29.05
2019-02-06T01:35:50.015Z,30.25
2019-02-06T01:36:52.829Z,29.95
2019-02-06T01:37:57.161Z,28.85
2019-02-06T01:39:01.362Z,29.90
2019-02-06T01:40:06.927Z,27.73
2019-02-06T01:41:11.505Z,30.88
2019-02-06T01:42:15.773Z,31.37
2019-02-06T01:43:20.051Z,30.60
2019-02-06T01:44:24.340Z,31.70
2019-02-06T01:45:28.607Z,32.17
2019-02-06T01:46:33.291Z,31.00
2019-02-06T01:47:37.556Z,28.20
2019-02-06T01:48:41.797Z,31.00
2019-02-06T01:49:46.061Z,30.95
2019-02-06T01:50:50.335Z,30.37
2019-02-06T01:51:54.566Z,30.40
2019-02-06T01:52:58.757Z,30.08
2019-02-06T01:54:03.065Z,30.35
2019-02-06T01:55:08.236Z,31.97
2019-02-06T01:56:12.506Z,30.20
2019-02-06T01:57:16.802Z,30.82
2019-02-06T01:58:21.153Z,31.62
2019-02-06T01:59:25.555Z,32.25
2019-02-06T02:00:29.882Z,31.37
2019-02-06T02:01:34.634Z,32.83
2019-02-06T02:02:39.267Z,33.60
2019-02-06T02:03:43.525Z,31.62
2019-02-06T02:04:47.803Z,32.08
2019-02-06T02:06:01.709Z,34.05
2019-02-06T02:06:57.991Z,29.40
2019-02-06T02:08:02.231Z,27.75
2019-02-06T02:09:15.027Z,29.00
2019-02-06T02:10:40.169Z,30.15
2019-02-06T02:11:44.499Z,26.70
2019-02-06T02:12:49.445Z,26.85
2019-02-06T02:13:53.777Z,29.02
2019-02-06T02:14:57.972Z,27.40
2019-02-06T02:16:02.316Z,27.00
2019-02-06T02:17:06.622Z,26.77
2019-02-06T02:18:10.776Z,27.05
2019-02-06T02:19:15.223Z,28.80
2019-02-06T02:20:21.182Z,27.98
2019-02-06T02:21:25.593Z,28.17
2019-02-06T02:22:29.743Z,24.92
2019-02-06T02:23:34.128Z,27.17
2019-02-06T02:24:38.558Z,27.05
2019-02-06T02:25:42.987Z,28.07
2019-02-06T02:26:47.307Z,28.52
2019-02-06T02:27:51.614Z,27.10
2019-02-06T02:28:56.200Z,28.73
2019-02-06T02:30:00.486Z,28.57
2019-02-06T02:31:04.998Z,25.08
2019-02-06T02:32:09.355Z,27.48
2019-02-06T02:33:13.502Z,26.73
2019-02-06T02:34:17.618Z,27.80
2019-02-06T02:35:21.783Z,26.65
2019-02-06T02:36:26.184Z,27.80
2019-02-06T02:37:30.545Z,27.30
2019-02-06T02:38:34.705Z,24.90
2019-02-06T02:39:38.995Z,26.33
2019-02-06T02:40:43.268Z,27.55
2019-02-06T02:41:47.797Z,26.37
2019-02-06T02:42:52.744Z,30.57
2019-02-06T02:43:56.891Z,27.58
2019-02-06T02:45:01.167Z,25.75
2019-02-06T02:46:05.721Z,26.00
2019-02-06T02:47:10.003Z,25.45
2019-02-06T02:48:14.301Z,24.92
2019-02-06T02:49:18.605Z,26.07
2019-02-06T02:50:22.767Z,26.05
2019-02-06T02:51:27.145Z,25.57
2019-02-06T02:52:31.458Z,25.95
2019-02-06T02:53:35.743Z,23.75
2019-02-06T02:54:40.030Z,24.63
2019-02-06T02:55:44.235Z,23.75
2019-02-06T02:56:48.516Z,24.92
2019-02-06T02:57:53.160Z,22.85
2019-02-06T02:58:57.470Z,24.47
2019-02-06T03:00:01.759Z,25.23
2019-02-06T03:01:24.063Z,24.10
2019-02-06T03:02:47.337Z,25.55
2019-02-06T03:04:00.782Z,26.23
2019-02-06T03:05:09.986Z,23.90
2019-02-06T03:06:27.218Z,25.32
2019-02-06T03:07:20.099Z,23.98
2019-02-06T03:08:24.280Z,25.32
2019-02-06T03:09:28.885Z,22.48
2019-02-06T03:10:33.518Z,25.35
2019-02-06T03:11:38.254Z,22.62
2019-02-06T03:12:42.537Z,23.95
2019-02-06T03:13:46.850Z,23.25
2019-02-06T03:14:51.176Z,23.25
2019-02-06T03:15:55.436Z,24.92
2019-02-06T03:17:03.067Z,22.82
2019-02-06T03:18:05.723Z,24.57
2019-02-06T03:19:10.005Z,23.00
2019-02-06T03:20:14.589Z,22.65
2019-02-06T03:21:18.862Z,23.20
2019-02-06T03:22:23.022Z,23.80
2019-02-06T03:23:27.217Z,23.50
2019-02-06T03:24:31.559Z,21.90
2019-02-06T03:25:35.783Z,24.00
2019-02-06T03:26:40.246Z,23.45
2019-02-06T03:27:45.013Z,23.32
2019-02-06T03:28:49.240Z,22.58
2019-02-06T03:29:53.699Z,22.07
2019-02-06T03:30:58.117Z,21.93
2019-02-06T03:32:02.370Z,22.85
2019-02-06T03:33:06.657Z,24.95
2019-02-06T03:34:10.808Z,21.62
2019-02-06T03:35:15.355Z,22.95
2019-02-06T03:36:19.622Z,22.32
2019-02-06T03:37:24.096Z,23.32
2019-02-06T03:38:28.407Z,21.48
2019-02-06T03:39:32.527Z,22.17
2019-02-06T03:40:36.827Z,21.82
2019-02-06T03:41:40.986Z,22.80
2019-02-06T03:42:45.607Z,22.25
2019-02-06T03:43:50.432Z,22.48
2019-02-06T03:44:54.896Z,21.20
2019-02-06T03:45:59.087Z,21.10
2019-02-06T03:47:03.271Z,22.20
2019-02-06T03:48:07.442Z,23.25
2019-02-06T03:49:11.793Z,21.55
2019-02-06T03:50:17.099Z,22.00
2019-02-06T03:51:21.313Z,21.25
2019-02-06T03:52:25.618Z,22.95
2019-02-06T03:53:29.747Z,21.07
2019-02-06T03:54:34.014Z,21.42
2019-02-06T03:55:38.183Z,20.55
2019-02-06T03:56:42.353Z,22.85
2019-02-06T03:57:46.657Z,21.60
2019-02-06T03:58:51.344Z,21.42
2019-02-06T03:59:55.529Z,24.45
2019-02-06T04:00:59.720Z,21.07
2019-02-06T04:02:03.922Z,23.00
2019-02-06T04:03:08.213Z,22.27
2019-02-06T04:04:12.459Z,23.30
2019-02-06T04:05:16.607Z,21.80
2019-02-06T04:06:20.735Z,21.70
2019-02-06T04:07:24.925Z,22.42
2019-02-06T04:08:29.120Z,21.42
2019-02-06T04:09:33.508Z,22.95
2019-02-06T04:10:37.895Z,21.33
2019-02-06T04:11:42.168Z,21.25
2019-02-06T04:12:46.414Z,22.75
2019-02-06T04:13:51.204Z,20.48
2019-02-06T04:14:56.137Z,21.40
2019-02-06T04:16:00.324Z,21.77
2019-02-06T04:17:05.047Z,20.62
2019-02-06T04:18:09.195Z,23.05
2019-02-06T04:19:13.418Z,21.35
2019-02-06T04:20:18.085Z,21.52
2019-02-06T04:21:22.255Z,22.00
2019-02-06T04:22:26.574Z,20.70
2019-02-06T04:23:30.821Z,21.15
2019-02-06T04:24:34.988Z,21.00
2019-02-06T04:25:39.217Z,22.13
2019-02-06T04:26:43.552Z,22.77
2019-02-06T04:27:47.844Z,20.68
2019-02-06T04:28:52.105Z,20.85
2019-02-06T04:29:56.615Z,22.50
2019-02-06T04:31:01.295Z,20.80
2019-02-06T04:32:05.964Z,21.70
2019-02-06T04:33:10.289Z,22.10
2019-02-06T04:34:14.639Z,21.82
2019-02-06T04:35:18.893Z,22.27
2019-02-06T04:36:23.106Z,21.35
2019-02-06T04:37:27.397Z,22.93
2019-02-06T04:38:31.625Z,21.93
2019-02-06T04:39:35.774Z,22.80
2019-02-06T04:40:40.135Z,22.00
2019-02-06T04:41:44.371Z,23.77
2019-02-06T04:42:48.581Z,21.52
2019-02-06T04:43:52.829Z,23.55
2019-02-06T04:44:57.111Z,22.58
2019-02-06T04:46:01.592Z,22.10
2019-02-06T04:47:05.943Z,23.65
2019-02-06T04:48:10.340Z,22.85
2019-02-06T04:49:14.696Z,23.27
2019-02-06T04:50:19.191Z,22.80
2019-02-06T04:51:23.537Z,22.37
2019-02-06T04:52:27.879Z,22.13
2019-02-06T04:53:32.000Z,23.30
2019-02-06T04:54:36.187Z,23.75
2019-02-06T04:55:40.459Z,24.12
2019-02-06T04:56:44.713Z,23.05
2019-02-06T04:57:49.239Z,24.30
2019-02-06T04:58:53.557Z,22.40
2019-02-06T04:59:57.910Z,23.30
2019-02-06T05:01:02.465Z,22.32
2019-02-06T05:02:07.075Z,22.93
2019-02-06T05:03:11.457Z,22.70
2019-02-06T05:04:16.113Z,22.05
2019-02-06T05:05:20.448Z,24.92
2019-02-06T05:06:24.663Z,22.32
2019-02-06T05:07:28.937Z,23.18
2019-02-06T05:08:33.248Z,21.85
2019-02-06T05:09:37.426Z,21.45
2019-02-06T05:10:41.724Z,23.52
2019-02-06T05:11:46.042Z,21.20
2019-02-06T05:12:50.355Z,25.25
2019-02-06T05:13:54.563Z,24.35
2019-02-06T05:14:58.875Z,24.12
2019-02-06T05:16:03.084Z,24.52
2019-02-06T05:17:07.816Z,24.55
2019-02-06T05:18:12.007Z,23.90
2019-02-06T05:19:16.192Z,24.05
2019-02-06T05:20:26.049Z,25.55
2019-02-06T05:21:30.278Z,24.07
2019-02-06T05:22:34.437Z,24.70
2019-02-06T05:23:38.711Z,24.43
2019-02-06T05:24:43.035Z,24.10
2019-02-06T05:25:47.232Z,25.57
2019-02-06T05:26:51.443Z,23.62
2019-02-06T05:27:55.797Z,24.67
2019-02-06T05:29:00.078Z,25.32
2019-02-06T05:30:04.677Z,26.97
2019-02-06T05:31:08.979Z,28.25
2019-02-06T05:32:13.275Z,25.62
2019-02-06T05:33:17.672Z,25.80
2019-02-06T05:34:22.206Z,26.23
2019-02-06T05:35:26.541Z,26.20
2019-02-06T05:36:30.726Z,28.35
2019-02-06T05:37:34.899Z,26.45
2019-02-06T05:38:39.117Z,25.88
2019-02-06T05:39:43.404Z,27.60
2019-02-06T05:40:47.666Z,29.57
2019-02-06T05:41:51.781Z,26.97
2019-02-06T05:42:56.091Z,26.55
2019-02-06T05:44:00.366Z,25.35
2019-02-06T05:45:05.741Z,27.90
2019-02-06T05:46:09.923Z,26.15
2019-02-06T05:47:14.085Z,26.48
2019-02-06T05:48:18.575Z,27.90
2019-02-06T05:49:23.370Z,26.75
2019-02-06T05:50:27.723Z,28.55
2019-02-06T05:51:32.028Z,27.65
2019-02-06T05:52:36.337Z,26.97
2019-02-06T05:53:40.760Z,29.48
2019-02-06T05:54:45.103Z,27.48
2019-02-06T05:55:49.493Z,28.25
2019-02-06T05:56:53.761Z,26.95
2019-02-06T05:57:58.083Z,30.57
2019-02-06T05:59:02.355Z,31.25
2019-02-06T06:00:11.063Z,28.98
2019-02-06T06:01:15.969Z,30.05
2019-02-06T06:02:20.311Z,27.50
2019-02-06T06:03:24.467Z,28.00
2019-02-06T06:04:29.023Z,30.60
2019-02-06T06:05:33.806Z,28.57
2019-02-06T06:06:37.989Z,31.90
2019-02-06T06:07:45.151Z,30.02
2019-02-06T06:08:48.218Z,29.10
2019-02-06T06:09:52.438Z,31.87
2019-02-06T06:10:56.682Z,29.85
2019-02-06T06:12:01.004Z,31.30
2019-02-06T06:13:05.321Z,29.98
2019-02-06T06:14:09.569Z,31.00
2019-02-06T06:15:15.495Z,31.15
2019-02-06T06:16:19.780Z,29.35
2019-02-06T06:17:24.139Z,30.88
2019-02-06T06:18:28.528Z,28.30
2019-02-06T06:19:32.799Z,29.80
2019-02-06T06:20:37.467Z,32.15
2019-02-06T06:21:41.885Z,29.48
2019-02-06T06:22:46.234Z,29.77
2019-02-06T06:23:50.577Z,29.52
2019-02-06T06:24:54.894Z,30.23
2019-02-06T06:25:59.246Z,32.55
2019-02-06T06:27:03.477Z,30.65
2019-02-06T06:28:07.627Z,28.98
2019-02-06T06:29:11.874Z,32.65
2019-02-06T06:30:17.549Z,33.38
2019-02-06T06:31:21.694Z,29.75
2019-02-06T06:32:25.963Z,31.35
2019-02-06T06:33:30.219Z,30.57
2019-02-06T06:34:34.475Z,32.38
2019-02-06T06:35:39.026Z,31.90
2019-02-06T06:36:43.833Z,33.45
2019-02-06T06:37:57.553Z,31.87
2019-02-06T06:38:54.169Z,34.30
2019-02-06T06:39:58.450Z,34.00
2019-02-06T06:41:02.685Z,34.18
2019-02-06T06:42:07.074Z,34.73
2019-02-06T06:43:11.356Z,32.95
2019-02-06T06:44:15.693Z,31.75
2019-02-06T06:45:21.750Z,32.73
2019-02-06T06:46:25.937Z,33.00
2019-02-06T06:47:30.292Z,33.90
2019-02-06T06:48:34.647Z,32.13
2019-02-06T06:49:39.231Z,33.83
2019-02-06T06:50:43.354Z,32.88
2019-02-06T06:51:47.857Z,34.10
2019-02-06T06:52:52.545Z,33.08
2019-02-06T06:53:56.688Z,31.23
2019-02-06T06:55:00.844Z,31.45
2019-02-06T06:56:05.294Z,33.75
2019-02-06T06:57:12.269Z,33.83
2019-02-06T06:58:15.604Z,30.45
2019-02-06T06:59:20.029Z,33.38
2019-02-06T07:00:26.453Z,32.30
2019-02-06T07:01:30.787Z,33.20
2019-02-06T07:02:35.145Z,32.45
2019-02-06T07:03:39.423Z,30.45
2019-02-06T07:04:43.694Z,32.95
2019-02-06T07:05:48.290Z,33.85
2019-02-06T07:06:52.493Z,35.15
2019-02-06T07:08:08.833Z,35.55
2019-02-06T07:09:03.405Z,35.78
2019-02-06T07:10:08.677Z,33.53
2019-02-06T07:11:14.417Z,34.00
2019-02-06T07:12:19.086Z,35.78
2019-02-06T07:13:23.369Z,32.35
2019-02-06T07:14:27.534Z,33.67
2019-02-06T07:15:33.823Z,32.17
2019-02-06T07:16:38.096Z,34.10
2019-02-06T07:17:42.394Z,32.98
2019-02-06T07:18:46.675Z,31.85
2019-02-06T07:19:50.937Z,32.63
2019-02-06T07:20:55.249Z,33.33
2019-02-06T07:21:59.527Z,34.15
2019-02-06T07:23:03.733Z,33.45
2019-02-06T07:24:07.871Z,34.23
2019-02-06T07:25:12.865Z,33.95
2019-02-06T07:26:17.026Z,30.05
2019-02-06T07:27:21.565Z,35.10
2019-02-06T07:28:25.904Z,34.00
2019-02-06T07:29:30.063Z,33.30
2019-02-06T07:30:35.857Z,30.48
2019-02-06T07:31:39.991Z,32.60
2019-02-06T07:32:44.275Z,33.90
2019-02-06T07:33:48.655Z,31.50
2019-02-06T07:34:53.004Z,32.93
2019-02-06T07:35:57.285Z,31.82
2019-02-06T07:37:01.607Z,32.10
2019-02-06T07:38:05.799Z,31.57
2019-02-06T07:39:10.084Z,32.60
2019-02-06T07:40:14.958Z,33.18
2019-02-06T07:41:19.720Z,30.55
2019-02-06T07:42:24.251Z,30.32
2019-02-06T07:43:29.046Z,34.67
2019-02-06T07:44:33.370Z,32.60
2019-02-06T07:45:37.845Z,33.08
2019-02-06T07:46:42.142Z,31.25
2019-02-06T07:47:46.565Z,31.75
2019-02-06T07:48:50.785Z,32.78
2019-02-06T07:49:55.192Z,31.62
2019-02-06T07:50:59.345Z,31.80
2019-02-06T07:52:03.613Z,30.48
2019-02-06T07:53:07.915Z,31.45
2019-02-06T07:54:12.383Z,29.77
2019-02-06T07:55:16.541Z,33.13
2019-02-06T07:56:20.821Z,31.37
2019-02-06T07:57:25.079Z,29.85
2019-02-06T07:58:29.743Z,29.30
2019-02-06T07:59:34.655Z,28.85
2019-02-06T08:00:38.957Z,30.10
2019-02-06T08:01:43.500Z,29.30
2019-02-06T08:02:47.667Z,29.57
2019-02-06T08:03:51.985Z,30.60
2019-02-06T08:04:56.133Z,30.68
2019-02-06T08:06:00.446Z,31.10
2019-02-06T08:07:05.093Z,31.80
2019-02-06T08:08:09.433Z,31.12
2019-02-06T08:09:13.666Z,30.72
2019-02-06T08:10:20.687Z,24.85
2019-02-06T08:11:24.978Z,22.93
2019-02-06T08:12:29.306Z,24.55
2019-02-06T08:13:33.455Z,23.87
2019-02-06T08:14:37.915Z,21.90
2019-02-06T08:15:42.447Z,23.12
2019-02-06T08:16:46.663Z,24.70
2019-02-06T08:17:51.087Z,23.60
2019-02-06T08:18:55.403Z,22.50
2019-02-06T08:19:59.589Z,22.77
2019-02-06T08:21:03.765Z,24.90
2019-02-06T08:22:07.996Z,24.02
2019-02-06T08:23:12.186Z,25.70
2019-02-06T08:24:16.317Z,24.75
2019-02-06T08:25:20.797Z,24.75
2019-02-06T08:26:25.092Z,23.75
2019-02-06T08:27:29.264Z,22.13
2019-02-06T08:28:33.879Z,21.65
2019-02-06T08:29:38.064Z,22.77
2019-02-06T08:30:42.746Z,22.35
2019-02-06T08:31:47.102Z,21.85
2019-02-06T08:32:51.479Z,19.95
2019-02-06T08:33:55.777Z,21.42
2019-02-06T08:35:00.009Z,23.32
2019-02-06T08:36:04.329Z,21.42
2019-02-06T08:37:08.599Z,21.17
2019-02-06T08:38:12.773Z,20.55
2019-02-06T08:39:17.097Z,23.42
2019-02-06T08:40:23.016Z,23.52
2019-02-06T08:41:27.367Z,24.12
2019-02-06T08:42:31.594Z,23.40
2019-02-06T08:43:35.843Z,23.50
2019-02-06T08:44:40.173Z,22.00
2019-02-06T08:45:44.541Z,22.32
2019-02-06T08:46:49.098Z,21.48
2019-02-06T08:47:54.212Z,23.98
2019-02-06T08:48:58.573Z,22.20
2019-02-06T08:50:02.843Z,19.70
2019-02-06T08:51:07.264Z,22.10
2019-02-06T08:52:11.425Z,22.52
2019-02-06T08:53:15.682Z,20.70
2019-02-06T08:54:20.357Z,22.58
2019-02-06T08:55:27.402Z,21.42
2019-02-06T08:56:31.635Z,22.77
2019-02-06T08:57:35.791Z,21.93
2019-02-06T08:58:40.083Z,21.17
2019-02-06T08:59:44.362Z,21.65
2019-02-06T09:00:48.545Z,23.60
2019-02-06T09:01:52.862Z,22.25
2019-02-06T09:02:57.663Z,22.95
2019-02-06T09:04:02.386Z,23.92
2019-02-06T09:05:07.689Z,23.30
2019-02-06T09:06:12.110Z,22.15
2019-02-06T09:07:16.461Z,21.85
2019-02-06T09:08:20.873Z,19.85
2019-02-06T09:09:25.092Z,21.40
2019-02-06T09:10:29.460Z,18.50
2019-02-06T09:11:33.771Z,19.35
2019-02-06T09:12:37.975Z,18.45
2019-02-06T09:13:42.275Z,18.92
2019-02-06T09:14:46.544Z,17.85
2019-02-06T09:15:50.871Z,18.62
2019-02-06T09:16:55.197Z,17.65
2019-02-06T09:17:59.447Z,19.17
2019-02-06T09:19:03.832Z,18.02
2019-02-06T09:20:11.482Z,19.50
2019-02-06T09:21:15.987Z,20.43
2019-02-06T09:22:20.245Z,20.70
2019-02-06T09:23:24.601Z,19.85
2019-02-06T09:24:28.760Z,18.32
2019-02-06T09:25:32.971Z,18.70
2019-02-06T09:26:37.239Z,22.95
2019-02-06T09:27:41.630Z,22.93
2019-02-06T09:28:46.001Z,22.87
2019-02-06T09:29:50.257Z,23.55
2019-02-06T09:30:54.929Z,21.15
2019-02-06T09:31:59.542Z,23.75
2019-02-06T09:33:04.851Z,24.55
2019-02-06T09:34:09.725Z,25.80
2019-02-06T09:35:14.638Z,24.23
2019-02-06T09:36:19.323Z,25.62
2019-02-06T09:37:23.767Z,23.20
2019-02-06T09:38:28.041Z,22.42
2019-02-06T09:39:32.363Z,24.87
2019-02-06T09:40:36.820Z,30.35
2019-02-06T09:41:41.127Z,29.67
2019-02-06T09:42:45.407Z,23.87
2019-02-06T09:43:49.595Z,23.10
2019-02-06T09:44:54.095Z,22.15
2019-02-06T09:45:58.364Z,21.65
2019-02-06T09:47:02.583Z,18.80
2019-02-06T09:48:07.004Z,20.17
2019-02-06T09:49:11.392Z,20.15
2019-02-06T09:50:21.755Z,20.80
2019-02-06T09:51:25.995Z,20.35
2019-02-06T09:52:30.266Z,21.35
2019-02-06T09:53:34.871Z,21.12
2019-02-06T09:54:39.231Z,21.77
2019-02-06T09:55:43.359Z,21.15
2019-02-06T09:56:50.518Z,18.85
2019-02-06T09:57:53.637Z,20.65
2019-02-06T09:58:57.874Z,18.02
2019-02-06T10:00:02.220Z,22.80
2019-02-06T10:01:06.463Z,20.72
2019-02-06T10:02:10.635Z,21.70
2019-02-06T10:03:14.845Z,18.42
2019-02-06T10:04:19.249Z,20.48
2019-02-06T10:05:23.824Z,19.15
2019-02-06T10:06:28.030Z,18.37
2019-02-06T10:07:32.269Z,18.57
2019-02-06T10:08:36.969Z,19.85
2019-02-06T10:09:41.541Z,20.50
2019-02-06T10:10:45.854Z,18.95
2019-02-06T10:11:50.001Z,18.80
2019-02-06T10:12:54.295Z,21.50
2019-02-06T10:13:58.573Z,23.75
2019-02-06T10:15:02.935Z,22.55
2019-02-06T10:16:07.279Z,22.85
2019-02-06T10:17:11.513Z,19.62
2019-02-06T10:18:15.827Z,18.20
2019-02-06T10:19:19.992Z,18.52
2019-02-06T10:20:25.913Z,19.45
2019-02-06T10:21:30.073Z,19.40
2019-02-06T10:22:34.391Z,18.75
2019-02-06T10:23:38.612Z,18.23
2019-02-06T10:24:43.165Z,17.82
2019-02-06T10:25:47.712Z,16.82
2019-02-06T10:26:52.009Z,18.92
2019-02-06T10:27:56.233Z,18.60
2019-02-06T10:29:00.572Z,18.62
2019-02-06T10:30:06.559Z,18.67
2019-02-06T10:31:10.835Z,18.90
2019-02-06T10:32:15.056Z,17.17
2019-02-06T10:33:19.583Z,16.75
2019-02-06T10:34:24.167Z,18.48
2019-02-06T10:35:28.474Z,17.27
2019-02-06T10:36:32.976Z,16.82
2019-02-06T10:37:37.141Z,17.40
2019-02-06T10:38:41.455Z,17.12
2019-02-06T10:39:45.639Z,17.20
2019-02-06T10:40:50.106Z,16.35
2019-02-06T10:41:54.734Z,18.65
2019-02-06T10:42:59.047Z,17.60
2019-02-06T10:44:03.167Z,19.98
2019-02-06T10:45:08.309Z,18.23
2019-02-06T10:46:12.591Z,17.70
2019-02-06T10:47:16.852Z,17.62
2019-02-06T10:48:21.409Z,17.75
2019-02-06T10:49:25.591Z,20.08
2019-02-06T10:50:32.725Z,21.37
2019-02-06T10:51:36.892Z,17.37
2019-02-06T10:52:41.251Z,19.67
2019-02-06T10:53:45.527Z,17.77
2019-02-06T10:54:49.852Z,16.27
2019-02-06T10:55:54.225Z,18.48
2019-02-06T10:56:58.701Z,18.10
2019-02-06T10:58:03.451Z,16.85
2019-02-06T10:59:07.755Z,17.85
2019-02-06T11:00:21.681Z,19.27
2019-02-06T11:01:26.017Z,19.17
2019-02-06T11:02:30.652Z,19.85
2019-02-06T11:03:34.918Z,19.85
2019-02-06T11:04:39.131Z,22.15
2019-02-06T11:05:43.302Z,20.12
2019-02-06T11:06:47.804Z,17.73
2019-02-06T11:07:52.059Z,20.17
2019-02-06T11:08:56.258Z,20.43
2019-02-06T11:10:00.566Z,21.25
2019-02-06T11:11:05.097Z,20.55
2019-02-06T11:12:09.466Z,22.75
2019-02-06T11:13:13.645Z,22.30
2019-02-06T11:14:17.902Z,22.73
2019-02-06T11:15:23.123Z,21.35
2019-02-06T11:16:27.796Z,21.10
2019-02-06T11:17:32.089Z,19.75
2019-02-06T11:18:36.413Z,19.30
2019-02-06T11:19:43.035Z,22.17
2019-02-06T11:20:46.734Z,21.05
2019-02-06T11:21:51.113Z,19.90
2019-02-06T11:22:55.779Z,19.65
2019-02-06T11:24:00.069Z,20.15
2019-02-06T11:25:06.078Z,19.40
2019-02-06T11:26:10.321Z,18.85
2019-02-06T11:27:14.744Z,19.15
2019-02-06T11:28:18.925Z,18.32
2019-02-06T11:29:23.072Z,19.57
2019-02-06T11:30:28.345Z,20.92
2019-02-06T11:31:32.649Z,21.00
2019-02-06T11:32:36.995Z,20.60
2019-02-06T11:33:41.608Z,18.80
2019-02-06T11:34:45.807Z,21.45
2019-02-06T11:35:50.127Z,19.85
2019-02-06T11:36:54.811Z,18.45
2019-02-06T11:37:59.064Z,19.60
2019-02-06T11:39:05.041Z,20.70
2019-02-06T11:40:15.267Z,19.57
2019-02-06T11:41:18.869Z,19.37
2019-02-06T11:42:23.003Z,18.12
2019-02-06T11:43:27.323Z,21.25
2019-02-06T11:44:31.484Z,19.95
2019-02-06T11:45:35.999Z,19.65
2019-02-06T11:46:41.419Z,19.52
2019-02-06T11:47:45.827Z,20.05
2019-02-06T11:48:50.221Z,19.10
2019-02-06T11:49:57.026Z,19.60
2019-02-06T11:51:01.772Z,20.35
2019-02-06T11:52:06.573Z,19.95
2019-02-06T11:53:19.907Z,21.23
2019-02-06T11:54:24.322Z,19.55
2019-02-06T11:55:28.690Z,19.67
2019-02-06T11:56:32.901Z,18.90
2019-02-06T11:57:37.035Z,18.87
2019-02-06T11:58:41.244Z,20.50
2019-02-06T11:59:45.894Z,18.27
2019-02-06T12:00:59.009Z,20.82
2019-02-06T12:02:03.280Z,20.15
2019-02-06T12:03:07.713Z,19.45
2019-02-06T12:04:11.822Z,20.75
2019-02-06T12:05:16.090Z,20.92
2019-02-06T12:06:20.397Z,21.90
2019-02-06T12:07:24.628Z,21.80
2019-02-06T12:08:31.161Z,22.65
2019-02-06T12:09:34.848Z,22.62
2019-02-06T12:10:39.111Z,21.45
2019-02-06T12:11:43.441Z,20.85
2019-02-06T12:12:48.307Z,23.07
2019-02-06T12:13:52.597Z,21.25
2019-02-06T12:14:56.906Z,21.93
2019-02-06T12:16:01.221Z,22.20
2019-02-06T12:17:05.520Z,22.45
2019-02-06T12:18:10.020Z,21.85
2019-02-06T12:19:14.448Z,20.37
2019-02-06T12:20:20.071Z,21.87
2019-02-06T12:21:24.271Z,20.10
2019-02-06T12:22:28.607Z,20.48
2019-02-06T12:23:32.905Z,23.12
2019-02-06T12:24:37.157Z,21.25
2019-02-06T12:25:41.489Z,23.40
2019-02-06T12:26:45.845Z,20.15
2019-02-06T12:27:50.500Z,20.32
2019-02-06T12:28:54.697Z,21.40
2019-02-06T12:29:58.907Z,22.15
2019-02-06T12:31:03.044Z,21.00
2019-02-06T12:32:07.250Z,21.10
2019-02-06T12:33:11.554Z,20.90
2019-02-06T12:34:15.858Z,23.15
2019-02-06T12:35:20.107Z,21.00
2019-02-06T12:36:24.495Z,23.42
2019-02-06T12:37:28.689Z,21.77
2019-02-06T12:38:32.971Z,24.10
2019-02-06T12:39:37.279Z,21.87
2019-02-06T12:40:41.405Z,22.95
2019-02-06T12:41:45.782Z,25.50
2019-02-06T12:42:50.492Z,23.25
2019-02-06T12:43:54.758Z,24.98
2019-02-06T12:44:59.251Z,22.80
2019-02-06T12:46:03.668Z,25.00
2019-02-06T12:47:07.973Z,25.05
2019-02-06T12:48:12.259Z,24.92
2019-02-06T12:49:16.439Z,24.52
2019-02-06T12:50:20.867Z,24.45
2019-02-06T12:51:30.748Z,24.80
2019-02-06T12:52:35.015Z,25.35
2019-02-06T12:53:39.204Z,25.37
2019-02-06T12:54:43.387Z,25.65
2019-02-06T12:55:47.552Z,24.45
2019-02-06T12:56:52.201Z,23.90
2019-02-06T12:57:56.436Z,24.25
2019-02-06T12:59:00.715Z,24.60
2019-02-06T13:00:08.945Z,23.90
2019-02-06T13:01:13.325Z,25.30
2019-02-06T13:02:17.563Z,25.15
2019-02-06T13:03:21.801Z,24.92
2019-02-06T13:04:26.085Z,23.90
2019-02-06T13:05:31.105Z,24.20
2019-02-06T13:06:35.305Z,26.45
2019-02-06T13:07:39.586Z,24.43
2019-02-06T13:08:43.966Z,23.85
2019-02-06T13:09:48.285Z,23.45
2019-02-06T13:10:52.629Z,26.02
2019-02-06T13:11:56.904Z,24.30
2019-02-06T13:13:01.577Z,23.52
2019-02-06T13:14:05.979Z,23.67
2019-02-06T13:15:12.139Z,21.95
2019-02-06T13:16:16.381Z,23.27
2019-02-06T13:17:20.614Z,23.90
2019-02-06T13:18:24.969Z,26.55
2019-02-06T13:19:29.193Z,26.25
2019-02-06T13:20:33.599Z,26.50
2019-02-06T13:21:37.993Z,26.05
2019-02-06T13:22:42.315Z,25.60
2019-02-06T13:23:49.378Z,26.05
2019-02-06T13:24:52.335Z,26.60
2019-02-06T13:25:56.637Z,27.40
2019-02-06T13:27:00.939Z,27.65
2019-02-06T13:28:05.501Z,26.57
2019-02-06T13:29:10.135Z,26.50
2019-02-06T13:30:23.751Z,26.57
2019-02-06T13:31:28.186Z,24.72
2019-02-06T13:32:32.711Z,23.32
2019-02-06T13:33:37.112Z,24.05
2019-02-06T13:34:41.675Z,25.25
2019-02-06T13:35:45.963Z,26.07
2019-02-06T13:36:50.198Z,24.00
2019-02-06T13:37:54.667Z,23.18
2019-02-06T13:38:58.864Z,22.25
2019-02-06T13:40:03.055Z,22.07
2019-02-06T13:41:07.463Z,22.52
2019-02-06T13:42:11.618Z,24.00
2019-02-06T13:43:16.178Z,22.82
2019-02-06T13:44:20.346Z,21.87
2019-02-06T13:45:30.255Z,21.65
2019-02-06T13:46:34.693Z,21.85
2019-02-06T13:47:39.020Z,22.93
2019-02-06T13:48:43.551Z,20.92
2019-02-06T13:49:48.416Z,20.88
2019-02-06T13:50:52.679Z,22.40
2019-02-06T13:51:56.919Z,21.65
2019-02-06T13:53:01.227Z,20.48